Abra Pampa, Argentina
Current Conditions -  °F | °C
As of 1:00 PM on Thursday 27 Nov 2014 (Local Time) from SLTJ Reporting Station
Broken Clouds Broken Clouds  
Wind Chill: 75°   Ceiling: 20000
Heat Index: 75°   Visibility: 6mi
Dew Point: 59°   Wind: 5mph
Humidity: 57%   Direction: 130°SE
Pressure: 30.18"   Gusts: NA
Location:  22.82°S, 65.72°W
Report Text: SLTJ 271600Z 13004KT 9999 SCT030 BKN200 24/15 Q1022
Loading
Personal Weather Stations






























Interactive Weather Map New forecast layout! Learn more

10-Day Weather Forecast

Advertisements
Track Severe Weather on mobile